METAR Data
IDs: Format: Raw Decoded Include TAF

Data at: 1501 UTC 21 Apr 2021

KBEH 211453Z AUTO 25005KT 10SM BKN037 BKN047 OVC065 03/M06 A3011 RMK AO2 SLP201 T00331056 51003
KBEH 211353Z AUTO 15004KT 10SM SCT041 BKN070 OVC095 03/M06 A3010 RMK AO2 SLP200 T00331061
KBEH 211253Z AUTO 10003KT 10SM OVC095 02/M07 A3011 RMK AO2 SLP201 T00221072
KBEH 211153Z AUTO 00000KT 10SM BKN060 BKN080 OVC090 01/M07 A3010 RMK AO2 SLP198 T00061067 10022 20000 53012
KBEH 211053Z AUTO 00000KT 10SM BKN055 OVC070 00/M07 A3009 RMK AO2 SLP194 T00001072
KBEH 210953Z AUTO 06004KT 10SM FEW060 OVC085 01/M08 A3007 RMK AO2 SLP189 T00061083
KBEH 210853Z AUTO 00000KT 10SM OVC080 01/M06 A3006 RMK AO2 SLP186 T00111061 53000
KBEH 210753Z AUTO 10SM BKN070 02/M04 A3006 RMK AO2 SLP184 T00171044
KBEH 210653Z AUTO 00000KT 10SM CLR 02/M04 A3006 RMK AO2 SLP184 T00171044
KBEH 210553Z AUTO VRB04KT 10SM CLR 02/M04 A3006 RMK AO2 SLP186 T00171044 10028 20017 51001
KBEH 210453Z AUTO VRB03KT 10SM BKN110 02/M04 A3006 RMK AO2 SLP186 T00221044 400500022
KBEH 210353Z AUTO VRB04KT 10SM CLR 03/M05 A3006 RMK AO2 SLP185 T00281050
KBEH 210253Z AUTO 35005KT 10SM FEW110 02/M05 A3006 RMK AO2 SLP185 T00221050 53003
KBEH 210153Z AUTO VRB03KT 10SM SCT110 02/M05 A3006 RMK AO2 SLP185 T00221050
KBEH 210053Z AUTO 10SM OVC095 03/M06 A3005 RMK AO2 SLP180 T00281056
KBEH 202353Z AUTO VRB04KT 10SM OVC095 03/M06 A3005 RMK AO2 SLP181 60000 T00281061 10039 20028 50001
KBEH 202253Z AUTO 01007KT 340V050 10SM OVC090 03/M07 A3005 RMK AO2 SNB06E08 SLP182 P0000 T00281067
KBEH 202153Z AUTO VRB05KT 10SM OVC090 03/M08 A3005 RMK AO2 SLP181 T00331078
KBEH 202053Z AUTO 00000KT 10SM OVC085 03/M05 A3005 RMK AO2 SLP179 T00331050 58010
KBEH 201953Z AUTO VRB03KT 10SM OVC085 03/M04 A3006 RMK AO2 SLP184 T00331044
KBEH 201853Z AUTO VRB05KT 10SM FEW031 OVC080 04/M04 A3007 RMK AO2 SLP188 T00391044
KBEH 201753Z AUTO 28004KT 10SM FEW027 FEW033 OVC075 03/M04 A3007 RMK AO2 SLP189 T00281039 10039 20022 50002
KBEH 201653Z AUTO 30006KT 10SM FEW036 BKN045 OVC055 02/M05 A3009 RMK AO2 SLP195 T00221050
KBEH 201553Z AUTO VRB05KT 10SM FEW031 FEW035 OVC055 03/M04 A3009 RMK AO2 SLP193 T00331039
KBEH 201453Z AUTO VRB04KT 10SM FEW041 OVC055 03/M03 A3007 RMK AO2 SLP187 T00331033 51009
KBEH 201353Z AUTO VRB03KT 10SM FEW028 SCT041 OVC060 03/M03 A3006 RMK AO2 SLP183 T00331033
KBEH 201253Z AUTO VRB03KT 10SM OVC090 03/M04 A3006 RMK AO2 SLP183 T00331044
KBEH 201153Z AUTO 03004KT 10SM FEW028 OVC042 03/M03 A3004 RMK AO2 SLP178 70033 T00281028 10044 20022 53015
KBEH 201053Z AUTO 04003KT 10SM BKN034 OVC110 03/M03 A3001 RMK AO2 SLP167 T00281028
KBEH 200953Z AUTO 03005KT 10SM OVC120 03/M03 A3000 RMK AO2 SLP165 T00331033
KBEH 200853Z AUTO 34005KT 10SM OVC110 04/M02 A3000 RMK AO2 SLP163 T00391017 51005
KBEH 200753Z AUTO 10SM SCT060 OVC110 04/M02 A2999 RMK AO2 SLP160 T00441022
KBEH 200653Z AUTO 32003KT 10SM OVC055 04/M02 A2999 RMK AO2 SLP159 T00441022
KBEH 200553Z AUTO 32006KT 10SM OVC060 04/M03 A2998 RMK AO2 SLP157 T00441028 10050 20044 52005
KBEH 200453Z AUTO 32006KT 10SM OVC055 05/M02 A2998 RMK AO2 SLP155 T00501022 401170044
KBEH 200353Z AUTO 32008KT 10SM OVC060 05/M01 A2997 RMK AO2 SLP153 T00501006